This is the latest recevied weather packets stored in our database for station/object LZ0VRC-10. If no packets are shown the sender has not sent any weather packets the latest 10 day(s).
| Time | Temp. | Humidity | Pressure | Rain* | Wind** | Luminosity | Snow |
|---|---|---|---|---|---|---|---|
| 1777910707 | 23.89° C | 25% | 1017.2 hPa | - | - | - | - |
| 1777910702 | 23.89° C | 25% | 1017.2 hPa | - | - | - | - |
| 1777909807 | 24.44° C | 24% | 1017.3 hPa | - | - | - | - |
| 1777909802 | 24.44° C | 24% | 1017.3 hPa | - | - | - | - |
| 1777908902 | 24.44° C | 25% | 1017.4 hPa | - | - | - | - |
| 1777908007 | 23.33° C | 26% | 1017.4 hPa | - | - | - | - |
| 1777908002 | 23.33° C | 26% | 1017.4 hPa | - | - | - | - |
| 1777907107 | 24.44° C | 25% | 1017.6 hPa | - | - | - | - |
| 1777907102 | 24.44° C | 25% | 1017.6 hPa | - | - | - | - |
| 1777906207 | 24.44° C | 25% | 1017.5 hPa | - | - | - | - |
| 1777906202 | 24.44° C | 25% | 1017.5 hPa | - | - | - | - |
| 1777905307 | 27.22° C | 22% | 1017.6 hPa | - | - | - | - |
| 1777905302 | 27.22° C | 22% | 1017.6 hPa | - | - | - | - |
| 1777904407 | 25° C | 24% | 1017.6 hPa | - | - | - | - |
| 1777904402 | 25° C | 24% | 1017.6 hPa | - | - | - | - |
| 1777903507 | 26.11° C | 24% | 1017.7 hPa | - | - | - | - |
| 1777903502 | 26.11° C | 24% | 1017.7 hPa | - | - | - | - |
| 1777902607 | 27.22° C | 22% | 1017.8 hPa | - | - | - | - |
| 1777902602 | 27.22° C | 22% | 1017.8 hPa | - | - | - | - |
| 1777901702 | 26.67° C | 23% | 1017.9 hPa | - | - | - | - |
| 1777900807 | 25° C | 25% | 1018 hPa | - | - | - | - |
| 1777900802 | 25° C | 25% | 1018 hPa | - | - | - | - |
| 1777899907 | 22.78° C | 28% | 1018.2 hPa | - | - | - | - |
| 1777899902 | 22.78° C | 28% | 1018.2 hPa | - | - | - | - |
| 1777899002 | 23.89° C | 27% | 1018.3 hPa | - | - | - | - |
* Rain since midnight (hover to see other rain measurements)
** Current wind speed in m/s (hover to see current wind gust speed)